sensor_id;sensor_type;location;lat;lon;timestamp;P1;durP1;ratioP1;P2;durP2;ratioP2
48487;SDS011;34289;48.572;13.378;2023-07-20T00:00:35;6.28;;;3.63;;
48487;SDS011;34289;48.572;13.378;2023-07-20T00:03:13;6.13;;;3.10;;
48487;SDS011;34289;48.572;13.378;2023-07-20T00:05:44;11.18;;;3.50;;
48487;SDS011;34289;48.572;13.378;2023-07-20T00:08:10;4.82;;;3.20;;
48487;SDS011;34289;48.572;13.378;2023-07-20T00:10:35;6.82;;;3.30;;
48487;SDS011;34289;48.572;13.378;2023-07-20T00:13:01;6.38;;;3.15;;
48487;SDS011;34289;48.572;13.378;2023-07-20T00:15:27;6.22;;;3.92;;
48487;SDS011;34289;48.572;13.378;2023-07-20T00:17:52;6.53;;;3.65;;
48487;SDS011;34289;48.572;13.378;2023-07-20T00:20:18;8.80;;;3.08;;
48487;SDS011;34289;48.572;13.378;2023-07-20T00:22:43;14.45;;;4.68;;
48487;SDS011;34289;48.572;13.378;2023-07-20T00:25:09;10.68;;;4.35;;
48487;SDS011;34289;48.572;13.378;2023-07-20T00:27:36;13.00;;;4.45;;
48487;SDS011;34289;48.572;13.378;2023-07-20T00:30:03;8.27;;;4.70;;
48487;SDS011;34289;48.572;13.378;2023-07-20T00:32:29;6.85;;;4.28;;
48487;SDS011;34289;48.572;13.378;2023-07-20T00:34:55;9.98;;;4.03;;
48487;SDS011;34289;48.572;13.378;2023-07-20T00:37:20;7.78;;;4.80;;
48487;SDS011;34289;48.572;13.378;2023-07-20T00:39:46;11.13;;;3.90;;
48487;SDS011;34289;48.572;13.378;2023-07-20T00:42:11;7.63;;;4.57;;
48487;SDS011;34289;48.572;13.378;2023-07-20T00:44:37;12.55;;;4.35;;
48487;SDS011;34289;48.572;13.378;2023-07-20T00:47:03;11.25;;;4.55;;
48487;SDS011;34289;48.572;13.378;2023-07-20T00:49:29;6.65;;;3.85;;
48487;SDS011;34289;48.572;13.378;2023-07-20T00:51:55;17.58;;;6.93;;
48487;SDS011;34289;48.572;13.378;2023-07-20T00:54:21;6.50;;;3.78;;
48487;SDS011;34289;48.572;13.378;2023-07-20T00:56:46;9.15;;;4.35;;
48487;SDS011;34289;48.572;13.378;2023-07-20T00:59:12;7.47;;;3.40;;
48487;SDS011;34289;48.572;13.378;2023-07-20T01:01:38;9.27;;;4.50;;
48487;SDS011;34289;48.572;13.378;2023-07-20T01:04:04;7.55;;;4.20;;
48487;SDS011;34289;48.572;13.378;2023-07-20T01:06:35;6.15;;;3.97;;
48487;SDS011;34289;48.572;13.378;2023-07-20T01:11:59;6.60;;;4.32;;
48487;SDS011;34289;48.572;13.378;2023-07-20T01:14:25;6.47;;;4.55;;
48487;SDS011;34289;48.572;13.378;2023-07-20T01:16:51;8.15;;;4.68;;
48487;SDS011;34289;48.572;13.378;2023-07-20T01:19:17;5.90;;;4.03;;
48487;SDS011;34289;48.572;13.378;2023-07-20T01:32:32;8.30;;;4.05;;
48487;SDS011;34289;48.572;13.378;2023-07-20T01:34:59;13.88;;;4.15;;
48487;SDS011;34289;48.572;13.378;2023-07-20T01:37:27;7.15;;;4.07;;
48487;SDS011;34289;48.572;13.378;2023-07-20T01:39:55;6.90;;;3.67;;
48487;SDS011;34289;48.572;13.378;2023-07-20T01:42:22;8.88;;;3.95;;
48487;SDS011;34289;48.572;13.378;2023-07-20T01:44:50;5.07;;;3.42;;
48487;SDS011;34289;48.572;13.378;2023-07-20T01:47:17;10.73;;;3.05;;
48487;SDS011;34289;48.572;13.378;2023-07-20T01:49:43;10.32;;;3.95;;
48487;SDS011;34289;48.572;13.378;2023-07-20T01:52:09;9.07;;;3.90;;
48487;SDS011;34289;48.572;13.378;2023-07-20T01:54:34;8.82;;;3.92;;
48487;SDS011;34289;48.572;13.378;2023-07-20T01:57:00;8.00;;;3.78;;
48487;SDS011;34289;48.572;13.378;2023-07-20T01:59:25;6.28;;;3.83;;
48487;SDS011;34289;48.572;13.378;2023-07-20T02:01:51;6.15;;;3.78;;
48487;SDS011;34289;48.572;13.378;2023-07-20T02:04:17;10.40;;;4.05;;
48487;SDS011;34289;48.572;13.378;2023-07-20T02:06:43;10.50;;;4.00;;
48487;SDS011;34289;48.572;13.378;2023-07-20T02:09:09;7.05;;;4.32;;
48487;SDS011;34289;48.572;13.378;2023-07-20T02:11:34;7.40;;;4.53;;
48487;SDS011;34289;48.572;13.378;2023-07-20T02:14:00;9.95;;;4.60;;
48487;SDS011;34289;48.572;13.378;2023-07-20T02:16:25;11.00;;;4.90;;
48487;SDS011;34289;48.572;13.378;2023-07-20T02:18:52;10.95;;;4.47;;
48487;SDS011;34289;48.572;13.378;2023-07-20T02:21:18;4.80;;;3.90;;
48487;SDS011;34289;48.572;13.378;2023-07-20T02:23:43;15.52;;;4.43;;
48487;SDS011;34289;48.572;13.378;2023-07-20T02:26:09;10.60;;;3.65;;
48487;SDS011;34289;48.572;13.378;2023-07-20T02:28:35;13.32;;;4.30;;
48487;SDS011;34289;48.572;13.378;2023-07-20T02:31:00;8.02;;;3.42;;
48487;SDS011;34289;48.572;13.378;2023-07-20T02:33:26;6.03;;;4.15;;
48487;SDS011;34289;48.572;13.378;2023-07-20T02:35:51;7.05;;;3.92;;
48487;SDS011;34289;48.572;13.378;2023-07-20T02:38:17;7.43;;;3.40;;
48487;SDS011;34289;48.572;13.378;2023-07-20T02:40:43;10.93;;;3.55;;
48487;SDS011;34289;48.572;13.378;2023-07-20T02:43:09;7.88;;;3.33;;
48487;SDS011;34289;48.572;13.378;2023-07-20T02:45:35;7.05;;;3.45;;
48487;SDS011;34289;48.572;13.378;2023-07-20T02:48:04;10.02;;;3.50;;
48487;SDS011;34289;48.572;13.378;2023-07-20T02:50:33;6.82;;;3.22;;
48487;SDS011;34289;48.572;13.378;2023-07-20T02:52:59;9.82;;;3.72;;
48487;SDS011;34289;48.572;13.378;2023-07-20T02:55:25;5.35;;;3.22;;
48487;SDS011;34289;48.572;13.378;2023-07-20T02:57:50;5.60;;;3.15;;
48487;SDS011;34289;48.572;13.378;2023-07-20T03:00:16;5.65;;;3.28;;
48487;SDS011;34289;48.572;13.378;2023-07-20T03:02:44;5.93;;;3.58;;
48487;SDS011;34289;48.572;13.378;2023-07-20T03:05:12;7.43;;;3.70;;
48487;SDS011;34289;48.572;13.378;2023-07-20T03:07:38;5.63;;;3.28;;
48487;SDS011;34289;48.572;13.378;2023-07-20T03:10:04;5.93;;;4.18;;
48487;SDS011;34289;48.572;13.378;2023-07-20T03:12:34;6.07;;;3.20;;
48487;SDS011;34289;48.572;13.378;2023-07-20T03:15:00;6.90;;;3.58;;
48487;SDS011;34289;48.572;13.378;2023-07-20T03:17:26;7.90;;;3.17;;
48487;SDS011;34289;48.572;13.378;2023-07-20T03:19:51;6.88;;;3.00;;
48487;SDS011;34289;48.572;13.378;2023-07-20T03:22:17;14.40;;;3.53;;
48487;SDS011;34289;48.572;13.378;2023-07-20T03:24:43;6.50;;;3.42;;
48487;SDS011;34289;48.572;13.378;2023-07-20T03:27:09;7.30;;;3.35;;
48487;SDS011;34289;48.572;13.378;2023-07-20T03:29:34;7.18;;;3.50;;
48487;SDS011;34289;48.572;13.378;2023-07-20T03:32:00;4.43;;;3.15;;
48487;SDS011;34289;48.572;13.378;2023-07-20T03:34:25;5.40;;;3.50;;
48487;SDS011;34289;48.572;13.378;2023-07-20T03:36:51;5.70;;;3.67;;
48487;SDS011;34289;48.572;13.378;2023-07-20T03:39:17;8.05;;;3.42;;
48487;SDS011;34289;48.572;13.378;2023-07-20T03:41:42;6.15;;;2.97;;
48487;SDS011;34289;48.572;13.378;2023-07-20T03:44:08;5.88;;;3.20;;
48487;SDS011;34289;48.572;13.378;2023-07-20T03:46:34;5.63;;;3.28;;
48487;SDS011;34289;48.572;13.378;2023-07-20T03:49:00;5.57;;;3.15;;
48487;SDS011;34289;48.572;13.378;2023-07-20T03:51:25;10.30;;;3.65;;
48487;SDS011;34289;48.572;13.378;2023-07-20T03:53:51;4.40;;;2.80;;
48487;SDS011;34289;48.572;13.378;2023-07-20T03:56:17;4.93;;;3.42;;
48487;SDS011;34289;48.572;13.378;2023-07-20T03:58:42;11.38;;;3.80;;
48487;SDS011;34289;48.572;13.378;2023-07-20T04:01:08;15.20;;;4.10;;
48487;SDS011;34289;48.572;13.378;2023-07-20T04:03:34;12.48;;;3.38;;
48487;SDS011;34289;48.572;13.378;2023-07-20T04:06:01;10.35;;;3.88;;
48487;SDS011;34289;48.572;13.378;2023-07-20T04:08:27;4.95;;;3.67;;
48487;SDS011;34289;48.572;13.378;2023-07-20T04:10:52;6.38;;;3.50;;
48487;SDS011;34289;48.572;13.378;2023-07-20T04:13:18;8.90;;;4.15;;
48487;SDS011;34289;48.572;13.378;2023-07-20T04:15:44;6.13;;;3.35;;
48487;SDS011;34289;48.572;13.378;2023-07-20T04:18:09;6.20;;;3.78;;
48487;SDS011;34289;48.572;13.378;2023-07-20T04:20:35;4.30;;;2.78;;
48487;SDS011;34289;48.572;13.378;2023-07-20T04:23:01;8.50;;;3.47;;
48487;SDS011;34289;48.572;13.378;2023-07-20T04:25:26;8.25;;;3.88;;
48487;SDS011;34289;48.572;13.378;2023-07-20T04:27:52;4.47;;;3.05;;
48487;SDS011;34289;48.572;13.378;2023-07-20T04:30:18;7.57;;;3.95;;
48487;SDS011;34289;48.572;13.378;2023-07-20T04:32:45;4.35;;;3.28;;
48487;SDS011;34289;48.572;13.378;2023-07-20T04:35:16;9.45;;;3.40;;
48487;SDS011;34289;48.572;13.378;2023-07-20T04:38:00;6.95;;;3.15;;
48487;SDS011;34289;48.572;13.378;2023-07-20T04:40:26;5.13;;;3.15;;
48487;SDS011;34289;48.572;13.378;2023-07-20T04:42:52;5.28;;;2.63;;
48487;SDS011;34289;48.572;13.378;2023-07-20T04:45:17;7.60;;;3.20;;
48487;SDS011;34289;48.572;13.378;2023-07-20T04:47:44;4.15;;;2.50;;
48487;SDS011;34289;48.572;13.378;2023-07-20T04:50:09;5.40;;;2.75;;
48487;SDS011;34289;48.572;13.378;2023-07-20T04:52:35;5.22;;;2.40;;
48487;SDS011;34289;48.572;13.378;2023-07-20T04:55:00;7.15;;;2.47;;
48487;SDS011;34289;48.572;13.378;2023-07-20T04:57:26;4.18;;;2.10;;
48487;SDS011;34289;48.572;13.378;2023-07-20T04:59:52;5.53;;;1.88;;
48487;SDS011;34289;48.572;13.378;2023-07-20T05:02:17;6.47;;;1.92;;
48487;SDS011;34289;48.572;13.378;2023-07-20T05:04:43;9.57;;;4.78;;
48487;SDS011;34289;48.572;13.378;2023-07-20T05:07:08;5.82;;;2.20;;
48487;SDS011;34289;48.572;13.378;2023-07-20T05:09:34;6.00;;;2.60;;
48487;SDS011;34289;48.572;13.378;2023-07-20T05:11:59;7.78;;;2.40;;
48487;SDS011;34289;48.572;13.378;2023-07-20T05:14:25;6.80;;;2.22;;
48487;SDS011;34289;48.572;13.378;2023-07-20T05:16:51;3.67;;;1.93;;
48487;SDS011;34289;48.572;13.378;2023-07-20T05:19:16;5.80;;;2.45;;
48487;SDS011;34289;48.572;13.378;2023-07-20T05:21:42;4.53;;;2.10;;
48487;SDS011;34289;48.572;13.378;2023-07-20T05:24:07;3.35;;;1.80;;
48487;SDS011;34289;48.572;13.378;2023-07-20T05:26:33;12.45;;;2.40;;
48487;SDS011;34289;48.572;13.378;2023-07-20T05:28:59;6.45;;;1.98;;
48487;SDS011;34289;48.572;13.378;2023-07-20T05:31:24;4.75;;;2.15;;
48487;SDS011;34289;48.572;13.378;2023-07-20T05:33:51;8.52;;;2.53;;
48487;SDS011;34289;48.572;13.378;2023-07-20T05:36:16;8.48;;;2.67;;
48487;SDS011;34289;48.572;13.378;2023-07-20T05:38:42;5.60;;;2.67;;
48487;SDS011;34289;48.572;13.378;2023-07-20T05:41:07;6.78;;;2.75;;
48487;SDS011;34289;48.572;13.378;2023-07-20T05:43:35;3.78;;;2.80;;
48487;SDS011;34289;48.572;13.378;2023-07-20T05:46:01;6.72;;;3.15;;
48487;SDS011;34289;48.572;13.378;2023-07-20T05:48:26;5.40;;;2.85;;
48487;SDS011;34289;48.572;13.378;2023-07-20T05:50:52;6.60;;;3.30;;
48487;SDS011;34289;48.572;13.378;2023-07-20T05:53:17;8.23;;;3.00;;
48487;SDS011;34289;48.572;13.378;2023-07-20T05:55:43;8.43;;;2.90;;
48487;SDS011;34289;48.572;13.378;2023-07-20T05:58:09;8.68;;;3.00;;
48487;SDS011;34289;48.572;13.378;2023-07-20T06:00:34;8.75;;;3.17;;
48487;SDS011;34289;48.572;13.378;2023-07-20T06:03:00;8.70;;;3.10;;
48487;SDS011;34289;48.572;13.378;2023-07-20T06:05:25;5.70;;;3.08;;
48487;SDS011;34289;48.572;13.378;2023-07-20T06:07:51;7.20;;;3.20;;
48487;SDS011;34289;48.572;13.378;2023-07-20T06:10:16;3.70;;;2.75;;
48487;SDS011;34289;48.572;13.378;2023-07-20T06:12:42;8.65;;;3.25;;
48487;SDS011;34289;48.572;13.378;2023-07-20T06:15:23;5.38;;;2.83;;
48487;SDS011;34289;48.572;13.378;2023-07-20T06:17:51;7.05;;;2.80;;
48487;SDS011;34289;48.572;13.378;2023-07-20T06:20:16;6.88;;;2.92;;
48487;SDS011;34289;48.572;13.378;2023-07-20T06:22:44;7.82;;;3.20;;
48487;SDS011;34289;48.572;13.378;2023-07-20T06:25:10;7.90;;;3.60;;
48487;SDS011;34289;48.572;13.378;2023-07-20T06:27:36;7.60;;;3.13;;
48487;SDS011;34289;48.572;13.378;2023-07-20T06:30:01;5.25;;;3.38;;
48487;SDS011;34289;48.572;13.378;2023-07-20T06:32:27;6.25;;;2.70;;
48487;SDS011;34289;48.572;13.378;2023-07-20T06:34:53;7.90;;;3.25;;
48487;SDS011;34289;48.572;13.378;2023-07-20T06:37:18;5.43;;;2.55;;
48487;SDS011;34289;48.572;13.378;2023-07-20T06:39:45;15.95;;;2.90;;
48487;SDS011;34289;48.572;13.378;2023-07-20T06:42:11;5.55;;;2.78;;
48487;SDS011;34289;48.572;13.378;2023-07-20T06:44:36;6.28;;;2.90;;
48487;SDS011;34289;48.572;13.378;2023-07-20T06:47:02;6.63;;;2.85;;
48487;SDS011;34289;48.572;13.378;2023-07-20T06:49:28;4.05;;;2.25;;
48487;SDS011;34289;48.572;13.378;2023-07-20T06:51:54;6.18;;;2.78;;
48487;SDS011;34289;48.572;13.378;2023-07-20T06:54:19;6.45;;;2.70;;
48487;SDS011;34289;48.572;13.378;2023-07-20T06:56:45;3.80;;;2.22;;
48487;SDS011;34289;48.572;13.378;2023-07-20T06:59:11;5.60;;;2.17;;
48487;SDS011;34289;48.572;13.378;2023-07-20T07:01:36;5.35;;;2.50;;
48487;SDS011;34289;48.572;13.378;2023-07-20T07:04:02;4.28;;;2.03;;
48487;SDS011;34289;48.572;13.378;2023-07-20T07:06:29;3.65;;;2.00;;
48487;SDS011;34289;48.572;13.378;2023-07-20T07:08:54;4.30;;;2.15;;
48487;SDS011;34289;48.572;13.378;2023-07-20T07:11:20;9.75;;;2.08;;
48487;SDS011;34289;48.572;13.378;2023-07-20T07:13:47;10.93;;;2.25;;
48487;SDS011;34289;48.572;13.378;2023-07-20T07:16:15;2.45;;;1.90;;
48487;SDS011;34289;48.572;13.378;2023-07-20T07:18:43;16.75;;;3.50;;
48487;SDS011;34289;48.572;13.378;2023-07-20T07:21:10;3.97;;;1.90;;
48487;SDS011;34289;48.572;13.378;2023-07-20T07:23:35;3.45;;;1.98;;
48487;SDS011;34289;48.572;13.378;2023-07-20T07:26:01;5.68;;;1.85;;
48487;SDS011;34289;48.572;13.378;2023-07-20T07:28:28;3.53;;;1.48;;
48487;SDS011;34289;48.572;13.378;2023-07-20T07:30:54;2.65;;;1.70;;
48487;SDS011;34289;48.572;13.378;2023-07-20T07:33:21;6.20;;;1.83;;
48487;SDS011;34289;48.572;13.378;2023-07-20T07:35:47;3.25;;;1.70;;
48487;SDS011;34289;48.572;13.378;2023-07-20T07:38:14;2.65;;;1.63;;
48487;SDS011;34289;48.572;13.378;2023-07-20T07:40:39;3.90;;;1.73;;
48487;SDS011;34289;48.572;13.378;2023-07-20T07:43:05;3.67;;;1.92;;
48487;SDS011;34289;48.572;13.378;2023-07-20T07:45:33;6.40;;;1.80;;
48487;SDS011;34289;48.572;13.378;2023-07-20T07:48:00;5.03;;;1.98;;
48487;SDS011;34289;48.572;13.378;2023-07-20T07:50:27;4.65;;;2.00;;
48487;SDS011;34289;48.572;13.378;2023-07-20T07:52:53;4.80;;;1.83;;
48487;SDS011;34289;48.572;13.378;2023-07-20T07:55:19;6.25;;;1.77;;
48487;SDS011;34289;48.572;13.378;2023-07-20T07:57:44;6.80;;;1.73;;
48487;SDS011;34289;48.572;13.378;2023-07-20T08:00:12;3.60;;;1.77;;
48487;SDS011;34289;48.572;13.378;2023-07-20T08:02:39;3.10;;;1.90;;
48487;SDS011;34289;48.572;13.378;2023-07-20T08:05:06;3.22;;;1.50;;
48487;SDS011;34289;48.572;13.378;2023-07-20T08:07:32;2.17;;;1.40;;
48487;SDS011;34289;48.572;13.378;2023-07-20T08:09:57;4.65;;;1.48;;
48487;SDS011;34289;48.572;13.378;2023-07-20T08:12:24;5.43;;;2.10;;
48487;SDS011;34289;48.572;13.378;2023-07-20T08:14:49;6.88;;;1.95;;
48487;SDS011;34289;48.572;13.378;2023-07-20T08:17:16;4.03;;;1.83;;
48487;SDS011;34289;48.572;13.378;2023-07-20T08:19:41;6.70;;;1.95;;
48487;SDS011;34289;48.572;13.378;2023-07-20T08:22:07;2.63;;;1.63;;
48487;SDS011;34289;48.572;13.378;2023-07-20T08:24:33;7.93;;;3.42;;
48487;SDS011;34289;48.572;13.378;2023-07-20T08:26:59;4.80;;;1.58;;
48487;SDS011;34289;48.572;13.378;2023-07-20T08:29:24;5.90;;;1.52;;
48487;SDS011;34289;48.572;13.378;2023-07-20T08:31:50;3.92;;;1.50;;
48487;SDS011;34289;48.572;13.378;2023-07-20T08:34:16;3.15;;;1.50;;
48487;SDS011;34289;48.572;13.378;2023-07-20T08:36:41;3.85;;;1.90;;
48487;SDS011;34289;48.572;13.378;2023-07-20T08:39:07;2.97;;;1.52;;
48487;SDS011;34289;48.572;13.378;2023-07-20T08:41:33;5.95;;;2.00;;
48487;SDS011;34289;48.572;13.378;2023-07-20T08:44:00;2.70;;;1.55;;
48487;SDS011;34289;48.572;13.378;2023-07-20T08:46:26;4.45;;;1.40;;
48487;SDS011;34289;48.572;13.378;2023-07-20T08:48:53;9.43;;;1.70;;
48487;SDS011;34289;48.572;13.378;2023-07-20T08:51:20;5.88;;;1.75;;
48487;SDS011;34289;48.572;13.378;2023-07-20T08:53:46;3.40;;;1.60;;
48487;SDS011;34289;48.572;13.378;2023-07-20T08:56:14;3.42;;;2.13;;
48487;SDS011;34289;48.572;13.378;2023-07-20T08:58:41;4.88;;;2.05;;
48487;SDS011;34289;48.572;13.378;2023-07-20T09:01:09;2.25;;;1.52;;
48487;SDS011;34289;48.572;13.378;2023-07-20T09:03:36;3.53;;;1.83;;
48487;SDS011;34289;48.572;13.378;2023-07-20T09:06:05;3.33;;;1.50;;
48487;SDS011;34289;48.572;13.378;2023-07-20T09:08:30;2.95;;;1.60;;
48487;SDS011;34289;48.572;13.378;2023-07-20T09:10:56;4.00;;;1.40;;
48487;SDS011;34289;48.572;13.378;2023-07-20T09:13:24;2.40;;;1.30;;
48487;SDS011;34289;48.572;13.378;2023-07-20T09:15:53;3.65;;;1.48;;
48487;SDS011;34289;48.572;13.378;2023-07-20T09:18:26;4.55;;;1.85;;
48487;SDS011;34289;48.572;13.378;2023-07-20T09:20:57;4.55;;;1.48;;
48487;SDS011;34289;48.572;13.378;2023-07-20T09:23:30;5.95;;;1.70;;
48487;SDS011;34289;48.572;13.378;2023-07-20T09:26:00;5.50;;;1.50;;
48487;SDS011;34289;48.572;13.378;2023-07-20T09:28:41;3.78;;;1.60;;
48487;SDS011;34289;48.572;13.378;2023-07-20T09:31:18;3.17;;;1.88;;
48487;SDS011;34289;48.572;13.378;2023-07-20T09:33:44;14.70;;;1.67;;
48487;SDS011;34289;48.572;13.378;2023-07-20T09:36:13;3.13;;;1.42;;
48487;SDS011;34289;48.572;13.378;2023-07-20T09:38:42;2.63;;;1.45;;
48487;SDS011;34289;48.572;13.378;2023-07-20T09:41:12;2.72;;;1.25;;
48487;SDS011;34289;48.572;13.378;2023-07-20T09:46:06;4.32;;;1.55;;
48487;SDS011;34289;48.572;13.378;2023-07-20T09:48:32;3.45;;;1.40;;
48487;SDS011;34289;48.572;13.378;2023-07-20T09:50:58;4.30;;;1.50;;
48487;SDS011;34289;48.572;13.378;2023-07-20T09:53:24;2.60;;;1.20;;
48487;SDS011;34289;48.572;13.378;2023-07-20T09:55:51;3.88;;;1.83;;
48487;SDS011;34289;48.572;13.378;2023-07-20T09:58:18;2.85;;;1.50;;
48487;SDS011;34289;48.572;13.378;2023-07-20T10:00:45;3.30;;;1.55;;
48487;SDS011;34289;48.572;13.378;2023-07-20T10:03:18;4.65;;;1.33;;
48487;SDS011;34289;48.572;13.378;2023-07-20T10:05:52;3.90;;;1.27;;
48487;SDS011;34289;48.572;13.378;2023-07-20T10:08:23;2.20;;;1.80;;
48487;SDS011;34289;48.572;13.378;2023-07-20T10:10:50;4.68;;;2.05;;
48487;SDS011;34289;48.572;13.378;2023-07-20T10:13:25;2.75;;;1.60;;
48487;SDS011;34289;48.572;13.378;2023-07-20T10:15:58;3.45;;;1.38;;
48487;SDS011;34289;48.572;13.378;2023-07-20T10:18:30;4.07;;;1.50;;
48487;SDS011;34289;48.572;13.378;2023-07-20T10:21:02;3.72;;;1.58;;
48487;SDS011;34289;48.572;13.378;2023-07-20T10:23:33;2.30;;;1.63;;
48487;SDS011;34289;48.572;13.378;2023-07-20T10:25:59;3.83;;;1.58;;
48487;SDS011;34289;48.572;13.378;2023-07-20T10:28:28;3.05;;;1.20;;
48487;SDS011;34289;48.572;13.378;2023-07-20T10:30:53;2.90;;;0.98;;
48487;SDS011;34289;48.572;13.378;2023-07-20T10:33:19;2.45;;;1.30;;
48487;SDS011;34289;48.572;13.378;2023-07-20T10:35:56;4.18;;;1.65;;
48487;SDS011;34289;48.572;13.378;2023-07-20T10:43:57;2.33;;;1.20;;
48487;SDS011;34289;48.572;13.378;2023-07-20T10:46:49;5.70;;;1.63;;
48487;SDS011;34289;48.572;13.378;2023-07-20T10:49:15;2.53;;;1.30;;
48487;SDS011;34289;48.572;13.378;2023-07-20T10:56:47;2.20;;;1.30;;
48487;SDS011;34289;48.572;13.378;2023-07-20T11:01:57;3.45;;;1.10;;
48487;SDS011;34289;48.572;13.378;2023-07-20T11:04:40;2.28;;;1.20;;
48487;SDS011;34289;48.572;13.378;2023-07-20T11:07:10;5.30;;;1.40;;
48487;SDS011;34289;48.572;13.378;2023-07-20T11:10:12;4.10;;;1.05;;
48487;SDS011;34289;48.572;13.378;2023-07-20T11:12:40;3.42;;;1.33;;
48487;SDS011;34289;48.572;13.378;2023-07-20T11:15:06;1.52;;;1.02;;
48487;SDS011;34289;48.572;13.378;2023-07-20T11:17:32;2.38;;;1.35;;
48487;SDS011;34289;48.572;13.378;2023-07-20T11:19:58;3.80;;;1.58;;
48487;SDS011;34289;48.572;13.378;2023-07-20T11:22:30;1.80;;;0.93;;
48487;SDS011;34289;48.572;13.378;2023-07-20T11:24:56;2.67;;;1.17;;
48487;SDS011;34289;48.572;13.378;2023-07-20T11:27:22;2.45;;;1.27;;
48487;SDS011;34289;48.572;13.378;2023-07-20T11:29:48;2.22;;;1.23;;
48487;SDS011;34289;48.572;13.378;2023-07-20T11:32:21;3.38;;;1.10;;
48487;SDS011;34289;48.572;13.378;2023-07-20T11:34:48;2.38;;;1.15;;
48487;SDS011;34289;48.572;13.378;2023-07-20T11:37:14;3.45;;;1.20;;
48487;SDS011;34289;48.572;13.378;2023-07-20T11:39:41;3.95;;;1.52;;
48487;SDS011;34289;48.572;13.378;2023-07-20T11:42:06;2.38;;;1.30;;
48487;SDS011;34289;48.572;13.378;2023-07-20T11:44:33;1.98;;;1.10;;
48487;SDS011;34289;48.572;13.378;2023-07-20T11:47:02;3.13;;;1.27;;
48487;SDS011;34289;48.572;13.378;2023-07-20T11:49:38;3.80;;;1.20;;
48487;SDS011;34289;48.572;13.378;2023-07-20T11:52:07;1.73;;;0.95;;
48487;SDS011;34289;48.572;13.378;2023-07-20T11:54:34;2.13;;;1.00;;
48487;SDS011;34289;48.572;13.378;2023-07-20T11:57:00;4.90;;;1.70;;
48487;SDS011;34289;48.572;13.378;2023-07-20T11:59:27;2.67;;;1.35;;
48487;SDS011;34289;48.572;13.378;2023-07-20T12:01:52;2.80;;;1.27;;
48487;SDS011;34289;48.572;13.378;2023-07-20T12:04:18;2.95;;;1.90;;
48487;SDS011;34289;48.572;13.378;2023-07-20T12:06:45;4.95;;;1.23;;
48487;SDS011;34289;48.572;13.378;2023-07-20T12:09:13;5.00;;;1.15;;
48487;SDS011;34289;48.572;13.378;2023-07-20T12:11:42;2.40;;;1.20;;
48487;SDS011;34289;48.572;13.378;2023-07-20T12:14:09;4.88;;;1.40;;
48487;SDS011;34289;48.572;13.378;2023-07-20T12:16:36;4.07;;;1.40;;
48487;SDS011;34289;48.572;13.378;2023-07-20T12:19:06;3.30;;;1.15;;
48487;SDS011;34289;48.572;13.378;2023-07-20T12:21:37;3.78;;;1.40;;
48487;SDS011;34289;48.572;13.378;2023-07-20T12:24:04;3.13;;;1.42;;
48487;SDS011;34289;48.572;13.378;2023-07-20T12:26:30;2.00;;;1.17;;
48487;SDS011;34289;48.572;13.378;2023-07-20T12:28:57;2.85;;;1.20;;
48487;SDS011;34289;48.572;13.378;2023-07-20T12:31:23;3.55;;;1.40;;
48487;SDS011;34289;48.572;13.378;2023-07-20T12:33:52;4.72;;;1.40;;
48487;SDS011;34289;48.572;13.378;2023-07-20T12:36:20;2.65;;;0.93;;
48487;SDS011;34289;48.572;13.378;2023-07-20T12:38:46;3.00;;;1.30;;
48487;SDS011;34289;48.572;13.378;2023-07-20T12:41:11;2.00;;;1.45;;
48487;SDS011;34289;48.572;13.378;2023-07-20T12:43:39;3.63;;;1.40;;
48487;SDS011;34289;48.572;13.378;2023-07-20T12:46:08;2.88;;;1.45;;
48487;SDS011;34289;48.572;13.378;2023-07-20T12:48:35;2.13;;;1.25;;
48487;SDS011;34289;48.572;13.378;2023-07-20T12:51:05;3.22;;;1.63;;
48487;SDS011;34289;48.572;13.378;2023-07-20T12:53:32;4.57;;;1.30;;
48487;SDS011;34289;48.572;13.378;2023-07-20T12:55:58;3.35;;;1.48;;
48487;SDS011;34289;48.572;13.378;2023-07-20T12:58:25;3.78;;;1.20;;
48487;SDS011;34289;48.572;13.378;2023-07-20T13:00:50;3.25;;;1.80;;
48487;SDS011;34289;48.572;13.378;2023-07-20T13:03:16;2.83;;;1.20;;
48487;SDS011;34289;48.572;13.378;2023-07-20T13:05:44;3.20;;;1.63;;
48487;SDS011;34289;48.572;13.378;2023-07-20T13:08:10;3.90;;;1.48;;
48487;SDS011;34289;48.572;13.378;2023-07-20T13:10:36;5.70;;;1.92;;
48487;SDS011;34289;48.572;13.378;2023-07-20T13:13:03;3.55;;;1.40;;
48487;SDS011;34289;48.572;13.378;2023-07-20T13:15:30;3.90;;;0.90;;
48487;SDS011;34289;48.572;13.378;2023-07-20T13:17:59;3.80;;;1.38;;
48487;SDS011;34289;48.572;13.378;2023-07-20T13:20:25;4.38;;;1.10;;
48487;SDS011;34289;48.572;13.378;2023-07-20T13:22:53;2.28;;;1.13;;
48487;SDS011;34289;48.572;13.378;2023-07-20T13:25:18;2.78;;;0.88;;
48487;SDS011;34289;48.572;13.378;2023-07-20T13:27:44;2.47;;;1.20;;
48487;SDS011;34289;48.572;13.378;2023-07-20T13:30:10;5.25;;;1.40;;
48487;SDS011;34289;48.572;13.378;2023-07-20T13:32:41;2.53;;;1.10;;
48487;SDS011;34289;48.572;13.378;2023-07-20T13:35:10;2.08;;;1.10;;
48487;SDS011;34289;48.572;13.378;2023-07-20T13:37:36;2.05;;;1.15;;
48487;SDS011;34289;48.572;13.378;2023-07-20T13:40:02;2.92;;;1.25;;
48487;SDS011;34289;48.572;13.378;2023-07-20T13:42:30;7.97;;;1.40;;
48487;SDS011;34289;48.572;13.378;2023-07-20T13:44:56;3.80;;;1.20;;
48487;SDS011;34289;48.572;13.378;2023-07-20T13:47:22;3.70;;;1.13;;
48487;SDS011;34289;48.572;13.378;2023-07-20T13:49:47;5.20;;;0.95;;
48487;SDS011;34289;48.572;13.378;2023-07-20T13:52:13;2.72;;;1.35;;
48487;SDS011;34289;48.572;13.378;2023-07-20T13:54:39;2.33;;;1.30;;
48487;SDS011;34289;48.572;13.378;2023-07-20T13:57:05;3.42;;;1.83;;
48487;SDS011;34289;48.572;13.378;2023-07-20T13:59:30;1.48;;;1.00;;
48487;SDS011;34289;48.572;13.378;2023-07-20T14:01:56;2.03;;;1.10;;
48487;SDS011;34289;48.572;13.378;2023-07-20T14:04:21;4.97;;;1.50;;
48487;SDS011;34289;48.572;13.378;2023-07-20T14:06:47;3.53;;;1.08;;
48487;SDS011;34289;48.572;13.378;2023-07-20T14:09:13;3.95;;;1.13;;
48487;SDS011;34289;48.572;13.378;2023-07-20T14:11:38;2.80;;;1.08;;
48487;SDS011;34289;48.572;13.378;2023-07-20T14:14:04;1.60;;;1.00;;
48487;SDS011;34289;48.572;13.378;2023-07-20T14:16:30;3.10;;;1.02;;
48487;SDS011;34289;48.572;13.378;2023-07-20T14:18:57;4.40;;;1.27;;
48487;SDS011;34289;48.572;13.378;2023-07-20T14:21:23;2.17;;;1.00;;
48487;SDS011;34289;48.572;13.378;2023-07-20T14:23:50;7.38;;;3.08;;
48487;SDS011;34289;48.572;13.378;2023-07-20T14:26:18;2.55;;;1.23;;
48487;SDS011;34289;48.572;13.378;2023-07-20T14:28:44;2.28;;;0.88;;
48487;SDS011;34289;48.572;13.378;2023-07-20T14:31:09;1.83;;;1.10;;
48487;SDS011;34289;48.572;13.378;2023-07-20T14:33:35;1.73;;;1.05;;
48487;SDS011;34289;48.572;13.378;2023-07-20T14:36:01;4.28;;;1.13;;
48487;SDS011;34289;48.572;13.378;2023-07-20T14:38:28;1.33;;;0.90;;
48487;SDS011;34289;48.572;13.378;2023-07-20T14:40:55;3.03;;;1.40;;
48487;SDS011;34289;48.572;13.378;2023-07-20T14:43:21;1.17;;;0.73;;
48487;SDS011;34289;48.572;13.378;2023-07-20T14:45:46;4.40;;;1.23;;
48487;SDS011;34289;48.572;13.378;2023-07-20T14:48:12;2.17;;;1.08;;
48487;SDS011;34289;48.572;13.378;2023-07-20T14:50:38;3.80;;;1.27;;
48487;SDS011;34289;48.572;13.378;2023-07-20T14:53:04;2.85;;;1.02;;
48487;SDS011;34289;48.572;13.378;2023-07-20T14:55:29;1.02;;;0.75;;
48487;SDS011;34289;48.572;13.378;2023-07-20T14:57:55;1.45;;;0.98;;
48487;SDS011;34289;48.572;13.378;2023-07-20T15:00:20;1.98;;;0.93;;